Time;durP1;ratioP1;P1;durP2;ratioP2;P2;SDS_P1;SDS_P2;PMS_P1;PMS_P2;Temp;Humidity;BMP_temperature;BMP_pressure;BME280_temperature;BME280_humidity;BME280_pressure;Samples;Min_cycle;Max_cycle;Signal;HPM_P1;HPM_P2
2023/06/09 00:02:13;;;;;;;3.13;2.55;;;;;;;;;;5022186;28;20137;-74
2023/06/09 00:04:38;;;;;;;2.50;2.30;;;;;;;;;;5022264;28;20045;-74
2023/06/09 00:07:04;;;;;;;2.45;2.25;;;;;;;;;;5021182;28;20891;-74
2023/06/09 00:09:30;;;;;;;2.70;2.47;;;;;;;;;;5021608;28;20833;-74
2023/06/09 00:11:56;;;;;;;2.42;2.22;;;;;;;;;;5020879;28;20041;-75
2023/06/09 00:14:21;;;;;;;5.10;2.72;;;;;;;;;;5022744;28;20684;-75
2023/06/09 00:16:47;;;;;;;2.80;2.60;;;;;;;;;;5021930;28;20041;-74
2023/06/09 00:19:15;;;;;;;4.45;2.33;;;;;;;;;;5022567;28;20156;-74
2023/06/09 00:21:44;;;;;;;2.72;2.35;;;;;;;;;;5021335;28;20526;-74
2023/06/09 00:24:10;;;;;;;2.63;2.42;;;;;;;;;;5022530;28;20116;-74
2023/06/09 00:26:35;;;;;;;3.60;2.40;;;;;;;;;;5021624;28;20592;-74
2023/06/09 00:29:01;;;;;;;3.35;2.42;;;;;;;;;;5021862;28;20084;-74
2023/06/09 00:31:26;;;;;;;2.53;2.30;;;;;;;;;;5021567;28;20053;-74
2023/06/09 00:33:52;;;;;;;5.15;2.72;;;;;;;;;;5020546;28;20098;-73
2023/06/09 00:36:17;;;;;;;2.42;2.22;;;;;;;;;;5022157;28;20040;-74
2023/06/09 00:38:43;;;;;;;2.97;2.30;;;;;;;;;;5020817;28;20060;-74
2023/06/09 00:41:08;;;;;;;2.60;2.40;;;;;;;;;;5020844;28;20052;-74
2023/06/09 00:43:33;;;;;;;4.07;2.80;;;;;;;;;;5019330;28;20064;-74
2023/06/09 00:46:04;;;;;;;3.70;2.30;;;;;;;;;;5020632;28;20041;-74
2023/06/09 00:48:29;;;;;;;5.03;2.60;;;;;;;;;;5020105;28;20144;-74
2023/06/09 00:50:57;;;;;;;2.45;2.25;;;;;;;;;;5036684;28;20107;-73
2023/06/09 00:53:24;;;;;;;3.15;2.50;;;;;;;;;;5020547;28;20076;-73
2023/06/09 00:55:50;;;;;;;3.30;2.40;;;;;;;;;;5028545;28;20164;-73
2023/06/09 00:58:17;;;;;;;3.78;2.97;;;;;;;;;;5023853;28;20547;-73
2023/06/09 01:00:43;;;;;;;4.10;2.72;;;;;;;;;;5020864;28;20049;-74
2023/06/09 01:03:09;;;;;;;6.60;2.50;;;;;;;;;;5021787;28;20049;-74
2023/06/09 01:05:36;;;;;;;3.92;2.50;;;;;;;;;;5020585;28;20046;-74
2023/06/09 01:08:25;;;;;;;4.45;2.67;;;;;;;;;;5020847;28;20063;-74
2023/06/09 01:11:00;;;;;;;3.72;2.67;;;;;;;;;;5020527;28;20047;-75
2023/06/09 01:13:42;;;;;;;3.10;2.65;;;;;;;;;;5018993;28;20057;-74
2023/06/09 01:16:28;;;;;;;3.75;2.70;;;;;;;;;;5019912;28;20041;-74
2023/06/09 01:18:55;;;;;;;2.97;2.50;;;;;;;;;;5016631;28;20060;-74
2023/06/09 01:21:35;;;;;;;2.22;2.03;;;;;;;;;;5015082;28;20049;-74
2023/06/09 01:24:32;;;;;;;4.90;3.13;;;;;;;;;;5018222;28;20517;-74
2023/06/09 01:27:02;;;;;;;3.22;2.92;;;;;;;;;;5017464;28;20041;-74
2023/06/09 01:29:32;;;;;;;4.28;2.90;;;;;;;;;;5018959;28;20852;-74
2023/06/09 01:32:00;;;;;;;2.10;1.90;;;;;;;;;;5019625;28;20858;-73
2023/06/09 01:34:26;;;;;;;4.30;3.00;;;;;;;;;;5020799;28;20139;-74
2023/06/09 01:36:52;;;;;;;3.70;3.35;;;;;;;;;;5019249;28;20498;-74
2023/06/09 01:39:18;;;;;;;3.55;3.25;;;;;;;;;;5016027;28;20045;-75
2023/06/09 01:41:44;;;;;;;4.65;3.20;;;;;;;;;;5019462;28;20068;-74
2023/06/09 01:44:10;;;;;;;3.58;3.17;;;;;;;;;;5003021;28;20402;-75
2023/06/09 01:46:36;;;;;;;5.25;3.72;;;;;;;;;;5018781;28;20045;-75
2023/06/09 01:49:13;;;;;;;3.80;3.38;;;;;;;;;;5034989;28;20106;-75
2023/06/09 01:51:54;;;;;;;3.85;3.00;;;;;;;;;;5020268;28;20041;-74
2023/06/09 01:54:27;;;;;;;4.43;3.70;;;;;;;;;;5019866;28;20076;-75
2023/06/09 01:57:06;;;;;;;4.07;3.67;;;;;;;;;;5020832;28;20053;-74
2023/06/09 01:59:40;;;;;;;6.53;3.10;;;;;;;;;;5018368;28;20048;-74
2023/06/09 02:02:08;;;;;;;7.32;3.47;;;;;;;;;;5018388;28;20496;-74
2023/06/09 02:04:35;;;;;;;4.75;3.28;;;;;;;;;;5018621;28;20076;-74
2023/06/09 02:07:03;;;;;;;5.28;3.70;;;;;;;;;;5002297;28;20560;-75
2023/06/09 02:09:30;;;;;;;5.07;3.75;;;;;;;;;;5018636;28;20506;-74
2023/06/09 02:11:56;;;;;;;5.18;3.60;;;;;;;;;;5001669;28;20051;-74
2023/06/09 02:14:22;;;;;;;4.03;3.50;;;;;;;;;;5020031;28;20099;-74
2023/06/09 02:16:47;;;;;;;6.03;3.85;;;;;;;;;;5034765;28;20060;-74
2023/06/09 02:19:15;;;;;;;4.65;3.80;;;;;;;;;;5002394;28;20057;-74
2023/06/09 02:21:41;;;;;;;5.20;3.70;;;;;;;;;;5026216;28;21034;-74
2023/06/09 02:24:06;;;;;;;4.57;3.47;;;;;;;;;;5038648;28;20498;-73
2023/06/09 02:26:32;;;;;;;4.65;3.35;;;;;;;;;;5025137;28;20068;-74
2023/06/09 02:28:58;;;;;;;4.68;3.67;;;;;;;;;;5041277;28;20041;-75
2023/06/09 02:31:24;;;;;;;4.05;3.65;;;;;;;;;;5033880;28;20421;-74
2023/06/09 02:33:49;;;;;;;3.90;3.50;;;;;;;;;;5041208;28;20045;-74
2023/06/09 02:36:15;;;;;;;5.78;3.75;;;;;;;;;;5042169;28;20049;-74
2023/06/09 02:38:41;;;;;;;4.10;3.65;;;;;;;;;;5040523;28;20053;-74
2023/06/09 02:41:06;;;;;;;4.05;3.65;;;;;;;;;;5026965;28;20080;-74
2023/06/09 02:43:31;;;;;;;4.60;4.10;;;;;;;;;;5007892;28;20053;-74
2023/06/09 02:45:57;;;;;;;5.15;3.53;;;;;;;;;;5025589;28;20127;-74
2023/06/09 02:48:22;;;;;;;4.28;3.80;;;;;;;;;;5041339;28;20049;-74
2023/06/09 02:50:47;;;;;;;3.83;3.53;;;;;;;;;;5026110;28;20041;-74
2023/06/09 02:53:14;;;;;;;7.80;4.25;;;;;;;;;;5025722;28;20045;-74
2023/06/09 02:55:44;;;;;;;4.85;3.97;;;;;;;;;;5040861;28;20611;-74
2023/06/09 02:58:14;;;;;;;4.30;3.90;;;;;;;;;;5030053;28;20256;-74
2023/06/09 03:00:44;;;;;;;5.63;3.70;;;;;;;;;;5008203;28;20581;-75
2023/06/09 03:03:11;;;;;;;5.25;3.67;;;;;;;;;;5025074;28;20088;-75
2023/06/09 03:05:40;;;;;;;4.45;3.53;;;;;;;;;;5024251;28;20049;-74
2023/06/09 03:08:09;;;;;;;6.47;4.60;;;;;;;;;;5029961;28;20041;-74
2023/06/09 03:10:35;;;;;;;4.40;4.00;;;;;;;;;;5040536;28;20048;-74
2023/06/09 03:13:01;;;;;;;6.10;4.20;;;;;;;;;;5025239;28;20053;-74
2023/06/09 03:15:26;;;;;;;5.03;4.53;;;;;;;;;;5024745;28;20052;-74
2023/06/09 03:17:52;;;;;;;5.80;4.30;;;;;;;;;;5023788;28;20037;-75
2023/06/09 03:20:19;;;;;;;5.10;4.28;;;;;;;;;;5024493;28;20094;-74
2023/06/09 03:22:48;;;;;;;5.28;4.40;;;;;;;;;;5040953;28;20049;-75
2023/06/09 03:25:15;;;;;;;5.03;4.28;;;;;;;;;;5008378;28;20132;-75
2023/06/09 03:27:41;;;;;;;5.07;3.88;;;;;;;;;;5024171;28;20049;-73
2023/06/09 03:30:07;;;;;;;4.85;4.20;;;;;;;;;;5026010;28;20048;-73
2023/06/09 03:32:33;;;;;;;9.43;4.82;;;;;;;;;;5008374;28;20107;-73
2023/06/09 03:34:59;;;;;;;6.85;4.63;;;;;;;;;;5022566;28;20049;-73
2023/06/09 03:37:24;;;;;;;4.72;4.22;;;;;;;;;;5021325;28;20208;-74
2023/06/09 03:39:50;;;;;;;5.65;4.47;;;;;;;;;;5001134;28;20042;-73
2023/06/09 03:42:20;;;;;;;7.85;4.65;;;;;;;;;;5005265;28;20049;-73
2023/06/09 03:44:45;;;;;;;6.35;4.40;;;;;;;;;;5037200;28;20107;-73
2023/06/09 03:47:11;;;;;;;6.63;5.45;;;;;;;;;;5035775;28;20451;-73
2023/06/09 03:49:37;;;;;;;5.78;5.05;;;;;;;;;;5035611;28;20361;-74
2023/06/09 03:52:06;;;;;;;8.88;4.93;;;;;;;;;;5037968;28;20077;-73
2023/06/09 03:54:33;;;;;;;7.93;5.20;;;;;;;;;;5030333;28;20056;-73
2023/06/09 03:57:01;;;;;;;5.55;4.70;;;;;;;;;;5020507;28;20041;-73
2023/06/09 03:59:28;;;;;;;6.00;4.88;;;;;;;;;;5037467;28;20057;-74
2023/06/09 04:01:53;;;;;;;5.63;5.03;;;;;;;;;;5036616;28;20502;-73
2023/06/09 04:04:19;;;;;;;6.47;5.30;;;;;;;;;;5037649;28;20049;-73
2023/06/09 04:06:45;;;;;;;6.88;5.40;;;;;;;;;;5037112;28;20068;-74
2023/06/09 04:09:13;;;;;;;7.05;6.15;;;;;;;;;;5037209;28;20046;-74
2023/06/09 04:11:40;;;;;;;9.30;5.78;;;;;;;;;;5028839;28;20122;-73
2023/06/09 04:14:05;;;;;;;7.25;6.50;;;;;;;;;;5030196;28;20348;-74
2023/06/09 04:16:31;;;;;;;7.43;6.25;;;;;;;;;;5022337;28;20136;-73
2023/06/09 04:18:57;;;;;;;9.68;6.30;;;;;;;;;;5021513;28;20132;-75
2023/06/09 04:21:23;;;;;;;8.88;6.65;;;;;;;;;;5020725;28;20053;-74
2023/06/09 04:23:48;;;;;;;8.20;6.90;;;;;;;;;;5036826;28;20045;-73
2023/06/09 04:26:15;;;;;;;6.82;6.13;;;;;;;;;;5037411;28;20053;-74
2023/06/09 04:28:41;;;;;;;7.47;6.43;;;;;;;;;;5020555;28;20052;-74
2023/06/09 04:31:08;;;;;;;6.65;5.45;;;;;;;;;;5020755;28;20370;-73
2023/06/09 04:33:36;;;;;;;9.52;6.75;;;;;;;;;;5019623;28;20510;-73
2023/06/09 04:36:03;;;;;;;7.50;6.10;;;;;;;;;;5020689;28;20037;-74
2023/06/09 04:38:32;;;;;;;8.05;6.85;;;;;;;;;;5020388;28;20045;-72
2023/06/09 04:41:02;;;;;;;7.95;6.93;;;;;;;;;;5028003;28;20064;-72
2023/06/09 04:43:32;;;;;;;9.23;6.95;;;;;;;;;;5004736;28;20103;-73
2023/06/09 04:45:59;;;;;;;13.18;7.50;;;;;;;;;;5019650;28;20045;-73
2023/06/09 04:48:25;;;;;;;10.50;6.95;;;;;;;;;;5019875;28;20057;-73
2023/06/09 04:50:51;;;;;;;8.52;6.75;;;;;;;;;;5007533;28;20095;-73
2023/06/09 04:53:19;;;;;;;9.13;6.88;;;;;;;;;;5020524;28;20345;-73
2023/06/09 04:55:52;;;;;;;7.80;6.88;;;;;;;;;;5019483;28;20048;-74
2023/06/09 04:58:18;;;;;;;12.32;7.85;;;;;;;;;;5020322;28;20051;-73
2023/06/09 05:00:43;;;;;;;8.43;7.05;;;;;;;;;;5028987;28;20054;-73
2023/06/09 05:03:13;;;;;;;8.98;7.35;;;;;;;;;;5024417;28;20401;-74
2023/06/09 05:05:40;;;;;;;8.85;7.32;;;;;;;;;;5004382;28;20060;-73
2023/06/09 05:08:05;;;;;;;10.40;7.60;;;;;;;;;;5020965;28;20045;-73
2023/06/09 05:10:32;;;;;;;10.27;7.57;;;;;;;;;;5036120;28;20041;-72
2023/06/09 05:12:58;;;;;;;9.68;7.78;;;;;;;;;;5019857;28;20049;-73
2023/06/09 05:15:24;;;;;;;8.88;7.40;;;;;;;;;;5036698;28;20410;-74
2023/06/09 05:17:50;;;;;;;8.38;6.68;;;;;;;;;;5019091;28;20095;-74
2023/06/09 05:20:16;;;;;;;9.13;7.22;;;;;;;;;;5036589;28;20045;-73
2023/06/09 05:22:42;;;;;;;9.27;7.25;;;;;;;;;;5019388;28;20060;-73
2023/06/09 05:25:09;;;;;;;7.80;6.47;;;;;;;;;;5031691;28;20050;-75
2023/06/09 05:27:36;;;;;;;7.28;6.28;;;;;;;;;;5020833;28;20541;-74
2023/06/09 05:30:01;;;;;;;7.90;6.88;;;;;;;;;;5019136;28;20436;-73
2023/06/09 05:32:28;;;;;;;9.90;7.13;;;;;;;;;;5019336;28;20033;-73
2023/06/09 05:34:54;;;;;;;10.30;7.45;;;;;;;;;;5018862;28;20053;-74
2023/06/09 05:37:19;;;;;;;8.90;7.22;;;;;;;;;;5003084;28;20123;-75
2023/06/09 05:39:45;;;;;;;10.70;7.10;;;;;;;;;;5002026;28;20041;-76
2023/06/09 05:42:11;;;;;;;9.90;7.20;;;;;;;;;;5020415;28;20049;-75
2023/06/09 05:44:37;;;;;;;8.00;7.03;;;;;;;;;;5019919;28;20041;-74
2023/06/09 05:47:02;;;;;;;9.73;6.97;;;;;;;;;;5020875;28;20037;-74
2023/06/09 05:49:28;;;;;;;8.15;6.82;;;;;;;;;;5020121;28;20052;-74
2023/06/09 05:51:53;;;;;;;9.32;6.30;;;;;;;;;;5018650;28;20053;-75
2023/06/09 05:54:19;;;;;;;8.77;6.18;;;;;;;;;;5020628;28;20038;-74
2023/06/09 05:56:48;;;;;;;7.30;5.63;;;;;;;;;;5034790;28;20441;-73
2023/06/09 05:59:14;;;;;;;6.20;5.28;;;;;;;;;;5020029;28;20057;-74
2023/06/09 06:01:41;;;;;;;7.45;5.53;;;;;;;;;;5019488;28;20457;-74
2023/06/09 06:04:07;;;;;;;6.82;4.55;;;;;;;;;;5021055;28;20095;-74
2023/06/09 06:06:33;;;;;;;5.90;4.63;;;;;;;;;;5020248;28;20602;-74
2023/06/09 06:08:58;;;;;;;6.47;4.43;;;;;;;;;;5019293;28;20132;-75
2023/06/09 06:11:24;;;;;;;5.60;4.70;;;;;;;;;;5035541;28;20053;-74
2023/06/09 06:13:49;;;;;;;4.82;4.35;;;;;;;;;;5019757;28;20049;-75
2023/06/09 06:16:15;;;;;;;6.45;3.42;;;;;;;;;;5020461;28;20057;-73
2023/06/09 06:18:40;;;;;;;6.72;3.42;;;;;;;;;;5019397;28;20041;-75
2023/06/09 06:21:06;;;;;;;4.00;3.60;;;;;;;;;;5020376;28;20678;-73
2023/06/09 06:23:32;;;;;;;3.75;3.40;;;;;;;;;;5019441;28;20045;-74
2023/06/09 06:25:57;;;;;;;3.42;3.10;;;;;;;;;;5020608;28;20049;-73
2023/06/09 06:28:23;;;;;;;3.63;3.33;;;;;;;;;;5019841;28;20219;-73
2023/06/09 06:30:49;;;;;;;4.72;3.08;;;;;;;;;;5019819;28;20038;-72
2023/06/09 06:33:15;;;;;;;4.75;2.20;;;;;;;;;;5020140;28;20053;-74
2023/06/09 06:35:41;;;;;;;2.33;1.83;;;;;;;;;;5019787;28;20129;-76
2023/06/09 06:38:06;;;;;;;1.92;1.80;;;;;;;;;;5019598;28;20041;-74
2023/06/09 06:40:32;;;;;;;1.80;1.70;;;;;;;;;;5018456;28;20609;-73
2023/06/09 06:42:58;;;;;;;4.32;2.70;;;;;;;;;;5019167;28;20053;-73
2023/06/09 06:45:41;;;;;;;2.40;2.20;;;;;;;;;;5034268;28;20046;-72
2023/06/09 06:48:06;;;;;;;3.10;2.80;;;;;;;;;;5019720;28;20038;-73
2023/06/09 06:50:32;;;;;;;4.75;2.53;;;;;;;;;;5018781;28;20983;-72
2023/06/09 06:52:58;;;;;;;4.53;2.88;;;;;;;;;;5019000;28;20143;-72
2023/06/09 06:55:24;;;;;;;2.67;2.47;;;;;;;;;;5020136;28;20132;-73
2023/06/09 06:57:50;;;;;;;3.58;2.80;;;;;;;;;;5019357;28;20418;-73
2023/06/09 07:00:15;;;;;;;2.40;2.20;;;;;;;;;;5020005;28;20815;-74
2023/06/09 07:02:44;;;;;;;2.80;2.60;;;;;;;;;;5019444;28;20457;-74
2023/06/09 07:05:09;;;;;;;3.03;2.40;;;;;;;;;;5020222;28;20049;-73
2023/06/09 07:07:35;;;;;;;2.78;2.47;;;;;;;;;;5019108;28;21224;-75
2023/06/09 07:10:04;;;;;;;2.60;2.40;;;;;;;;;;5018508;28;20136;-73
2023/06/09 07:12:32;;;;;;;2.30;2.10;;;;;;;;;;5022799;28;20068;-74
2023/06/09 07:14:57;;;;;;;4.57;2.38;;;;;;;;;;5022810;28;20408;-73
2023/06/09 07:17:23;;;;;;;3.05;2.28;;;;;;;;;;5023634;28;20042;-75
2023/06/09 07:19:48;;;;;;;2.72;2.53;;;;;;;;;;5022306;28;20071;-73
2023/06/09 07:22:15;;;;;;;7.50;2.70;;;;;;;;;;5023202;28;20069;-74
2023/06/09 07:24:41;;;;;;;2.38;2.15;;;;;;;;;;5022069;28;20045;-73
2023/06/09 07:27:07;;;;;;;2.38;2.20;;;;;;;;;;5023394;28;20059;-75
2023/06/09 07:29:34;;;;;;;3.63;2.78;;;;;;;;;;5021249;28;20470;-73
2023/06/09 07:32:00;;;;;;;4.68;3.00;;;;;;;;;;5022785;28;20059;-72
2023/06/09 07:34:27;;;;;;;2.97;2.78;;;;;;;;;;5023107;28;20402;-72
2023/06/09 07:36:53;;;;;;;3.28;3.00;;;;;;;;;;5022241;28;20399;-72
2023/06/09 07:39:20;;;;;;;4.97;3.40;;;;;;;;;;5037882;28;21066;-73
2023/06/09 07:41:45;;;;;;;2.80;2.60;;;;;;;;;;5022966;28;20052;-72
2023/06/09 07:44:11;;;;;;;3.78;3.22;;;;;;;;;;5022870;28;20049;-72
2023/06/09 07:46:36;;;;;;;3.45;3.15;;;;;;;;;;5022491;28;20049;-72
2023/06/09 07:49:02;;;;;;;3.70;3.40;;;;;;;;;;5036991;28;20084;-72
2023/06/09 07:51:29;;;;;;;3.70;3.40;;;;;;;;;;5022280;28;20589;-72
2023/06/09 07:53:54;;;;;;;3.47;3.15;;;;;;;;;;5021346;28;20049;-73
2023/06/09 07:56:20;;;;;;;3.80;3.50;;;;;;;;;;5022964;28;20552;-72
2023/06/09 07:58:45;;;;;;;3.28;2.97;;;;;;;;;;5003878;28;20057;-73
2023/06/09 08:01:11;;;;;;;3.70;2.80;;;;;;;;;;5038008;28;20080;-72
2023/06/09 08:03:37;;;;;;;3.22;2.92;;;;;;;;;;5021829;28;20053;-72
2023/06/09 08:06:03;;;;;;;2.83;2.60;;;;;;;;;;5022570;28;20069;-73
2023/06/09 08:08:31;;;;;;;3.33;3.05;;;;;;;;;;5022380;28;20111;-73
2023/06/09 08:10:58;;;;;;;4.55;3.17;;;;;;;;;;5021694;28;20168;-73
2023/06/09 08:13:24;;;;;;;3.67;3.33;;;;;;;;;;5021857;28;20346;-73
2023/06/09 08:15:50;;;;;;;3.30;3.00;;;;;;;;;;5004316;28;20072;-72
2023/06/09 08:18:15;;;;;;;3.08;2.78;;;;;;;;;;5022213;28;20056;-72
2023/06/09 08:20:41;;;;;;;2.95;2.63;;;;;;;;;;5021641;28;20149;-74
2023/06/09 08:23:07;;;;;;;3.63;3.13;;;;;;;;;;5021894;28;20045;-74
2023/06/09 08:25:34;;;;;;;3.22;3.00;;;;;;;;;;5020180;28;20050;-72
2023/06/09 08:28:00;;;;;;;3.35;3.05;;;;;;;;;;5022031;28;20079;-74
2023/06/09 08:30:26;;;;;;;5.05;3.40;;;;;;;;;;5003987;28;20080;-75
2023/06/09 08:32:51;;;;;;;8.77;3.35;;;;;;;;;;5019974;28;20067;-74
2023/06/09 08:35:16;;;;;;;4.95;3.22;;;;;;;;;;5003417;28;20052;-75
2023/06/09 08:37:42;;;;;;;4.05;2.72;;;;;;;;;;5020356;28;20045;-74
2023/06/09 08:40:08;;;;;;;4.88;3.05;;;;;;;;;;5021778;28;20068;-72
2023/06/09 08:42:35;;;;;;;5.03;3.33;;;;;;;;;;5021959;28;20049;-73
2023/06/09 08:45:04;;;;;;;4.20;3.80;;;;;;;;;;5019877;28;20045;-74
2023/06/09 08:47:31;;;;;;;4.40;3.72;;;;;;;;;;5020817;28;20049;-74
2023/06/09 08:49:59;;;;;;;4.22;3.72;;;;;;;;;;5019997;28;20102;-74
2023/06/09 08:52:25;;;;;;;5.85;3.30;;;;;;;;;;5021809;28;20049;-73
2023/06/09 08:54:52;;;;;;;7.10;3.70;;;;;;;;;;5020659;28;20045;-73
2023/06/09 08:57:18;;;;;;;5.30;3.55;;;;;;;;;;5020663;28;20675;-74
2023/06/09 08:59:47;;;;;;;4.72;3.88;;;;;;;;;;5021369;28;20148;-74
2023/06/09 09:02:13;;;;;;;3.70;3.20;;;;;;;;;;5019812;28;20049;-71
2023/06/09 09:04:38;;;;;;;3.50;3.20;;;;;;;;;;5022405;28;20103;-73
2023/06/09 09:07:08;;;;;;;3.55;3.20;;;;;;;;;;5025748;28;20045;-72
2023/06/09 09:09:34;;;;;;;2.90;2.70;;;;;;;;;;5020316;28;20061;-72
2023/06/09 09:12:01;;;;;;;3.28;2.97;;;;;;;;;;5021653;28;20038;-72
2023/06/09 09:14:27;;;;;;;3.30;3.00;;;;;;;;;;5019510;28;20060;-72
2023/06/09 09:16:52;;;;;;;5.65;3.10;;;;;;;;;;5019948;28;20049;-72
2023/06/09 09:19:28;;;;;;;3.30;3.00;;;;;;;;;;5020306;28;20410;-72
2023/06/09 09:21:56;;;;;;;3.63;3.30;;;;;;;;;;5020809;28;20053;-72
2023/06/09 09:24:29;;;;;;;3.15;2.85;;;;;;;;;;5020872;28;20052;-72
2023/06/09 09:26:57;;;;;;;4.53;2.70;;;;;;;;;;5019087;28;20042;-72
2023/06/09 09:29:28;;;;;;;2.60;2.40;;;;;;;;;;5018828;28;20402;-71
2023/06/09 09:32:02;;;;;;;2.92;2.53;;;;;;;;;;5019523;28;20052;-72
2023/06/09 09:34:34;;;;;;;3.15;2.80;;;;;;;;;;5019941;28;20045;-72
2023/06/09 09:37:01;;;;;;;4.75;3.08;;;;;;;;;;5019002;28;20997;-72
2023/06/09 09:39:27;;;;;;;3.33;3.00;;;;;;;;;;5019289;28;20057;-72
2023/06/09 09:42:07;;;;;;;2.60;2.40;;;;;;;;;;5019509;28;20054;-72
2023/06/09 09:44:43;;;;;;;2.75;2.50;;;;;;;;;;5020548;28;20066;-72
2023/06/09 09:47:12;;;;;;;2.95;2.65;;;;;;;;;;5034548;28;20077;-72
2023/06/09 09:49:37;;;;;;;4.53;3.15;;;;;;;;;;5021843;28;20053;-72
2023/06/09 09:52:06;;;;;;;3.25;3.00;;;;;;;;;;5021388;28;20094;-73
2023/06/09 09:54:36;;;;;;;4.93;3.50;;;;;;;;;;5020087;28;20079;-72
2023/06/09 09:57:02;;;;;;;4.25;2.88;;;;;;;;;;5019919;28;20593;-72
2023/06/09 09:59:27;;;;;;;2.30;2.00;;;;;;;;;;5020310;28;20077;-72
2023/06/09 10:01:55;;;;;;;3.80;2.33;;;;;;;;;;5020364;28;20136;-72
2023/06/09 10:04:23;;;;;;;2.80;2.58;;;;;;;;;;5019615;28;20478;-74
2023/06/09 10:06:58;;;;;;;2.90;2.55;;;;;;;;;;5002403;28;20323;-74
2023/06/09 10:09:24;;;;;;;2.80;2.60;;;;;;;;;;5019098;28;20049;-74
2023/06/09 10:11:52;;;;;;;2.75;2.53;;;;;;;;;;5019961;28;20168;-73
2023/06/09 10:14:19;;;;;;;2.83;2.63;;;;;;;;;;5020500;28;20146;-74
2023/06/09 10:16:45;;;;;;;7.60;2.83;;;;;;;;;;5019835;28;20068;-72
2023/06/09 10:19:11;;;;;;;3.72;2.88;;;;;;;;;;5018805;28;20410;-72
2023/06/09 10:21:37;;;;;;;4.93;2.72;;;;;;;;;;5018860;28;20095;-73
2023/06/09 10:24:04;;;;;;;4.63;2.42;;;;;;;;;;5020324;28;20037;-75
2023/06/09 10:26:30;;;;;;;2.95;2.65;;;;;;;;;;5019516;28;21153;-75
2023/06/09 10:28:55;;;;;;;4.25;2.85;;;;;;;;;;5019377;28;20046;-73
2023/06/09 10:31:22;;;;;;;4.03;2.10;;;;;;;;;;5020073;28;20153;-73
2023/06/09 10:33:49;;;;;;;2.40;2.17;;;;;;;;;;5020291;28;20140;-74
2023/06/09 10:36:15;;;;;;;6.82;2.70;;;;;;;;;;5017626;28;20506;-74
2023/06/09 10:38:47;;;;;;;2.70;2.50;;;;;;;;;;5018791;28;20037;-74
2023/06/09 10:41:18;;;;;;;3.00;2.40;;;;;;;;;;5002215;28;20112;-74
2023/06/09 10:44:06;;;;;;;3.20;2.90;;;;;;;;;;5018544;28;20057;-72
2023/06/09 10:46:38;;;;;;;3.30;3.00;;;;;;;;;;5023498;28;20045;-72
2023/06/09 10:49:03;;;;;;;4.35;3.03;;;;;;;;;;5021966;28;20045;-75
2023/06/09 10:51:29;;;;;;;3.17;2.60;;;;;;;;;;5024148;28;20060;-72
2023/06/09 10:54:07;;;;;;;2.80;2.50;;;;;;;;;;5023909;28;20055;-72
2023/06/09 10:56:36;;;;;;;3.75;2.55;;;;;;;;;;5023739;28;20048;-73
2023/06/09 10:59:03;;;;;;;2.30;2.10;;;;;;;;;;5021962;28;20078;-73
2023/06/09 11:01:29;;;;;;;2.92;2.47;;;;;;;;;;5023752;28;20060;-73
2023/06/09 11:03:54;;;;;;;3.53;2.67;;;;;;;;;;5023726;28;20053;-73
2023/06/09 11:06:20;;;;;;;2.90;2.63;;;;;;;;;;5022467;28;20376;-75
2023/06/09 11:09:08;;;;;;;2.55;2.35;;;;;;;;;;5037321;28;20049;-73
2023/06/09 11:11:51;;;;;;;4.10;2.38;;;;;;;;;;5023260;28;20049;-74
2023/06/09 11:14:44;;;;;;;3.83;2.33;;;;;;;;;;5023785;28;20072;-73
2023/06/09 11:17:19;;;;;;;4.25;2.72;;;;;;;;;;5020846;28;20045;-74
2023/06/09 11:19:45;;;;;;;4.57;2.72;;;;;;;;;;5023075;28;20498;-73
2023/06/09 11:22:12;;;;;;;2.58;2.38;;;;;;;;;;5022085;28;20053;-74
2023/06/09 11:24:50;;;;;;;2.97;2.55;;;;;;;;;;5022950;28;20055;-74
2023/06/09 11:27:17;;;;;;;5.88;2.50;;;;;;;;;;5035885;28;20049;-74
2023/06/09 11:29:43;;;;;;;2.35;2.20;;;;;;;;;;5022618;28;20569;-74
2023/06/09 11:32:09;;;;;;;2.45;2.20;;;;;;;;;;5020584;28;20050;-74
2023/06/09 11:34:55;;;;;;;2.97;2.53;;;;;;;;;;5037955;28;20045;-75
2023/06/09 11:37:21;;;;;;;2.60;2.40;;;;;;;;;;5015498;28;20053;-74
2023/06/09 11:39:47;;;;;;;2.50;2.30;;;;;;;;;;5022148;28;20052;-74
2023/06/09 11:42:14;;;;;;;2.95;2.65;;;;;;;;;;5022392;28;20384;-74
2023/06/09 11:44:40;;;;;;;2.50;2.22;;;;;;;;;;5020287;28;20076;-73
2023/06/09 11:47:27;;;;;;;2.78;2.58;;;;;;;;;;5022684;28;20158;-74
2023/06/09 11:50:07;;;;;;;2.50;2.30;;;;;;;;;;5022151;28;20128;-73
2023/06/09 11:52:33;;;;;;;4.45;2.75;;;;;;;;;;5021694;28;20041;-75
2023/06/09 11:55:03;;;;;;;3.30;2.20;;;;;;;;;;5019392;28;20049;-76
2023/06/09 11:57:30;;;;;;;3.20;2.20;;;;;;;;;;5020125;28;20045;-75
2023/06/09 11:59:56;;;;;;;2.28;2.08;;;;;;;;;;5022016;28;20069;-75
2023/06/09 12:02:21;;;;;;;3.10;2.33;;;;;;;;;;5022452;28;20140;-74
2023/06/09 12:04:48;;;;;;;2.65;2.15;;;;;;;;;;5020948;28;20045;-75
2023/06/09 12:07:15;;;;;;;2.40;2.20;;;;;;;;;;5022570;28;20052;-75
2023/06/09 12:09:42;;;;;;;2.80;2.17;;;;;;;;;;5020369;28;20524;-75
2023/06/09 12:12:08;;;;;;;2.63;2.17;;;;;;;;;;5022162;28;20107;-75
2023/06/09 12:14:34;;;;;;;2.30;2.10;;;;;;;;;;5022287;28;20130;-74
2023/06/09 12:16:59;;;;;;;3.60;2.35;;;;;;;;;;5020646;28;20936;-74
2023/06/09 12:19:25;;;;;;;2.28;2.08;;;;;;;;;;5021935;28;20046;-74
2023/06/09 12:21:50;;;;;;;1.88;1.77;;;;;;;;;;5022023;28;20061;-75
2023/06/09 12:24:16;;;;;;;1.77;1.67;;;;;;;;;;5020782;28;20045;-75
2023/06/09 12:26:47;;;;;;;2.10;2.00;;;;;;;;;;5020413;28;20787;-74
2023/06/09 12:29:13;;;;;;;4.93;1.75;;;;;;;;;;5020821;28;20576;-75
2023/06/09 12:31:46;;;;;;;2.15;1.90;;;;;;;;;;5021478;28;20041;-76
2023/06/09 12:34:26;;;;;;;3.15;2.03;;;;;;;;;;5021955;28;20049;-74
2023/06/09 12:36:54;;;;;;;2.50;2.03;;;;;;;;;;5020932;28;20060;-74
2023/06/09 12:39:21;;;;;;;2.83;2.38;;;;;;;;;;5020603;28;20053;-75
2023/06/09 12:41:46;;;;;;;2.05;1.90;;;;;;;;;;5020266;28;20114;-74
2023/06/09 12:44:22;;;;;;;2.20;2.00;;;;;;;;;;5037116;28;20041;-74
2023/06/09 12:46:54;;;;;;;2.03;1.90;;;;;;;;;;5020644;28;20052;-75
2023/06/09 12:49:31;;;;;;;2.10;1.90;;;;;;;;;;5020656;28;20057;-75
2023/06/09 12:51:58;;;;;;;2.08;1.88;;;;;;;;;;5003416;28;20045;-74
2023/06/09 12:54:25;;;;;;;2.53;2.08;;;;;;;;;;5021532;28;20498;-74
2023/06/09 12:56:50;;;;;;;2.35;2.15;;;;;;;;;;5019430;28;20049;-74
2023/06/09 12:59:16;;;;;;;3.47;2.17;;;;;;;;;;5020771;28;20045;-75
2023/06/09 13:01:41;;;;;;;2.70;2.08;;;;;;;;;;5020694;28;20152;-74
2023/06/09 13:04:07;;;;;;;2.30;2.10;;;;;;;;;;5021409;28;20073;-75
2023/06/09 13:06:33;;;;;;;3.05;2.50;;;;;;;;;;5021246;28;20038;-75
2023/06/09 13:09:00;;;;;;;2.60;2.40;;;;;;;;;;5020294;28;20041;-75
2023/06/09 13:11:26;;;;;;;2.22;2.03;;;;;;;;;;5020221;28;20057;-74
2023/06/09 13:13:51;;;;;;;4.68;2.45;;;;;;;;;;5020653;28;20513;-74
2023/06/09 13:16:17;;;;;;;2.95;2.10;;;;;;;;;;5020027;28;20045;-73
2023/06/09 13:18:42;;;;;;;2.40;2.10;;;;;;;;;;5019841;28;20045;-75
2023/06/09 13:21:08;;;;;;;4.85;2.42;;;;;;;;;;5020639;28;20499;-74
2023/06/09 13:23:33;;;;;;;4.20;2.42;;;;;;;;;;5019460;28;20058;-74
2023/06/09 13:25:59;;;;;;;3.40;2.45;;;;;;;;;;5035944;28;20115;-75
2023/06/09 13:28:24;;;;;;;4.68;2.65;;;;;;;;;;5019000;28;20049;-75
2023/06/09 13:30:50;;;;;;;5.65;2.40;;;;;;;;;;5018189;28;20052;-74
2023/06/09 13:33:16;;;;;;;4.75;2.67;;;;;;;;;;5019502;28;20041;-74
2023/06/09 13:35:43;;;;;;;3.95;2.80;;;;;;;;;;5019534;28;20064;-74
2023/06/09 13:38:10;;;;;;;3.78;2.70;;;;;;;;;;5020584;28;20557;-74
2023/06/09 13:40:36;;;;;;;4.65;2.58;;;;;;;;;;5020397;28;20051;-75
2023/06/09 13:43:02;;;;;;;3.28;2.53;;;;;;;;;;5019884;28;20056;-74
2023/06/09 13:45:28;;;;;;;2.65;2.38;;;;;;;;;;5019927;28;20131;-74
2023/06/09 13:47:57;;;;;;;2.83;2.50;;;;;;;;;;5019733;28;20193;-74
2023/06/09 13:50:23;;;;;;;2.58;2.38;;;;;;;;;;5020388;28;20122;-75
2023/06/09 13:52:49;;;;;;;2.80;2.47;;;;;;;;;;4995977;28;20470;-74
2023/06/09 13:55:14;;;;;;;3.38;2.60;;;;;;;;;;5018385;28;20049;-75
2023/06/09 13:57:42;;;;;;;2.72;2.50;;;;;;;;;;5018942;28;20060;-75
2023/06/09 14:00:10;;;;;;;3.67;2.20;;;;;;;;;;5022094;28;20048;-74
2023/06/09 14:02:38;;;;;;;3.60;2.83;;;;;;;;;;5020139;28;20053;-73
2023/06/09 14:05:05;;;;;;;3.58;2.30;;;;;;;;;;5024028;28;20067;-73
2023/06/09 14:07:30;;;;;;;4.63;2.67;;;;;;;;;;5016058;28;20049;-74
2023/06/09 14:09:56;;;;;;;4.43;2.30;;;;;;;;;;5019318;28;20047;-73
2023/06/09 14:12:22;;;;;;;2.80;2.47;;;;;;;;;;5003217;28;20355;-74
2023/06/09 14:14:47;;;;;;;3.72;2.45;;;;;;;;;;5019577;28;20056;-74
2023/06/09 14:17:13;;;;;;;2.90;2.53;;;;;;;;;;5002469;28;20065;-74
2023/06/09 14:19:38;;;;;;;2.70;2.30;;;;;;;;;;5001634;28;20056;-73
2023/06/09 14:22:05;;;;;;;6.20;3.08;;;;;;;;;;5020618;28;20056;-75
2023/06/09 14:24:31;;;;;;;6.07;2.47;;;;;;;;;;5018726;28;20038;-74
2023/06/09 14:26:57;;;;;;;6.85;2.38;;;;;;;;;;5019722;28;20041;-74
2023/06/09 14:29:22;;;;;;;6.70;2.70;;;;;;;;;;5018351;28;20560;-73
2023/06/09 14:31:48;;;;;;;2.72;2.50;;;;;;;;;;5020239;28;20045;-74
2023/06/09 14:34:13;;;;;;;4.22;2.50;;;;;;;;;;5020701;28;20050;-75
2023/06/09 14:36:39;;;;;;;5.00;2.50;;;;;;;;;;5019499;28;20099;-74
2023/06/09 14:39:04;;;;;;;5.40;2.40;;;;;;;;;;5019081;28;20415;-75
2023/06/09 14:41:30;;;;;;;4.05;2.50;;;;;;;;;;5021881;28;20138;-73
2023/06/09 14:43:55;;;;;;;2.97;2.50;;;;;;;;;;5022446;28;20045;-74
2023/06/09 14:46:20;;;;;;;5.55;2.60;;;;;;;;;;5019748;28;20048;-74